Time;durP1;ratioP1;P1;durP2;ratioP2;P2;SDS_P1;SDS_P2;PMS_P1;PMS_P2;Temp;Humidity;BMP_temperature;BMP_pressure;BME280_temperature;BME280_humidity;BME280_pressure;Samples;Min_cycle;Max_cycle;Signal;HPM_P1;HPM_P2
2022/11/12 00:00:52;;;;;;;15.37;7.87;;;6.20;99.90;;;;;;5089797;28;20345;-76
2022/11/12 00:03:18;;;;;;;10.48;7.25;;;6.30;99.90;;;;;;5088161;28;20042;-76
2022/11/12 00:05:45;;;;;;;12.02;7.60;;;6.30;99.90;;;;;;5086161;28;20123;-76
2022/11/12 00:08:11;;;;;;;14.25;7.38;;;6.30;99.90;;;;;;5084890;28;20040;-75
2022/11/12 00:10:37;;;;;;;16.70;7.80;;;6.30;99.90;;;;;;5088927;28;20036;-76
2022/11/12 00:13:03;;;;;;;12.90;7.60;;;6.40;99.90;;;;;;5093626;28;20039;-75
2022/11/12 00:15:28;;;;;;;12.63;8.57;;;6.50;99.90;;;;;;5088488;28;20348;-80
2022/11/12 00:17:54;;;;;;;17.23;9.47;;;6.50;99.90;;;;;;5088528;28;20028;-75
2022/11/12 00:20:20;;;;;;;15.73;8.47;;;6.50;99.90;;;;;;5093201;28;20028;-76
2022/11/12 00:22:45;;;;;;;17.17;9.40;;;6.50;99.90;;;;;;5095646;28;20024;-75
2022/11/12 00:25:11;;;;;;;14.47;8.27;;;6.50;99.90;;;;;;5094429;28;20345;-75
2022/11/12 00:27:37;;;;;;;19.37;8.77;;;6.40;99.90;;;;;;5079881;28;20086;-76
2022/11/12 00:30:03;;;;;;;16.52;8.13;;;6.50;99.90;;;;;;5085033;28;20028;-76
2022/11/12 00:32:29;;;;;;;14.98;7.88;;;6.50;99.90;;;;;;5084032;28;20028;-77
2022/11/12 00:34:55;;;;;;;16.73;9.17;;;6.50;99.90;;;;;;5086685;28;20082;-76
2022/11/12 00:37:22;;;;;;;15.30;8.40;;;6.50;99.90;;;;;;5090543;28;20034;-75
2022/11/12 00:39:48;;;;;;;12.85;7.82;;;6.40;99.90;;;;;;5094900;28;20414;-75
2022/11/12 00:42:13;;;;;;;20.37;8.67;;;6.40;99.90;;;;;;5072737;28;20062;-76
2022/11/12 00:44:39;;;;;;;20.83;9.40;;;6.40;99.90;;;;;;5090376;28;20291;-75
2022/11/12 00:47:05;;;;;;;18.63;8.43;;;6.40;99.90;;;;;;5086603;28;20036;-75
2022/11/12 00:49:31;;;;;;;15.95;8.32;;;6.40;99.90;;;;;;5085018;28;20028;-75
2022/11/12 00:51:57;;;;;;;17.02;8.90;;;6.50;99.90;;;;;;5088346;28;20036;-76
2022/11/12 00:54:22;;;;;;;14.68;8.77;;;6.40;99.90;;;;;;5085738;28;20032;-76
2022/11/12 00:56:48;;;;;;;17.63;8.23;;;6.50;99.90;;;;;;5085223;28;20024;-75
2022/11/12 00:59:36;;;;;;;17.03;8.07;;;6.40;99.90;;;;;;5089381;28;20024;-76
2022/11/12 01:02:01;;;;;;;15.07;8.95;;;6.40;99.90;;;;;;5085997;28;20049;-75
2022/11/12 01:04:27;;;;;;;18.25;8.82;;;6.40;99.90;;;;;;5091369;28;20032;-76
2022/11/12 01:06:52;;;;;;;24.40;9.05;;;6.40;99.90;;;;;;5089899;28;20028;-75
2022/11/12 01:09:18;;;;;;;21.17;10.00;;;6.40;99.90;;;;;;5092652;28;20434;-76
2022/11/12 01:11:44;;;;;;;17.30;8.10;;;6.40;99.90;;;;;;5090518;28;20024;-75
2022/11/12 01:14:09;;;;;;;17.07;9.20;;;6.50;99.90;;;;;;5086038;28;20407;-82
2022/11/12 01:16:41;;;;;;;15.83;8.20;;;6.40;99.90;;;;;;5088303;28;20055;-76
2022/11/12 01:19:09;;;;;;;14.88;8.48;;;6.40;99.90;;;;;;5084681;28;20439;-75
2022/11/12 01:21:38;;;;;;;14.40;8.02;;;6.40;99.90;;;;;;5091608;28;20103;-82
2022/11/12 01:24:04;;;;;;;15.70;8.45;;;6.40;99.90;;;;;;5089745;28;20039;-75
2022/11/12 01:26:30;;;;;;;16.40;8.80;;;6.50;99.90;;;;;;5087003;28;20040;-76
2022/11/12 01:28:56;;;;;;;14.60;9.07;;;6.50;99.90;;;;;;5090632;28;20028;-76
2022/11/12 01:31:28;;;;;;;15.07;8.60;;;6.50;99.90;;;;;;5088342;28;20111;-75
2022/11/12 01:34:00;;;;;;;17.50;8.77;;;6.60;99.90;;;;;;5089137;28;20024;-76
2022/11/12 01:36:31;;;;;;;15.75;8.55;;;6.60;99.90;;;;;;5093190;28;20107;-75
2022/11/12 01:38:57;;;;;;;15.27;8.50;;;6.70;99.90;;;;;;5085502;28;20415;-76
2022/11/12 01:41:26;;;;;;;26.58;9.23;;;6.70;99.90;;;;;;5083311;28;20088;-75
2022/11/12 01:44:12;;;;;;;15.60;8.82;;;6.70;99.90;;;;;;5090492;28;20081;-76
2022/11/12 01:46:59;;;;;;;20.10;9.88;;;6.80;99.90;;;;;;5092616;28;20679;-76
2022/11/12 01:49:35;;;;;;;17.38;9.02;;;6.80;99.90;;;;;;5091858;28;20063;-75
2022/11/12 01:52:11;;;;;;;;;;;6.80;99.90;;;;;;5089430;28;20038;-76
2022/11/12 01:54:38;;;;;;;19.17;9.32;;;6.80;99.90;;;;;;5090498;28;20226;-75
2022/11/12 01:57:05;;;;;;;21.02;9.82;;;6.80;99.90;;;;;;5088534;28;20024;-75
2022/11/12 01:59:39;;;;;;;19.80;10.05;;;6.90;99.90;;;;;;5090259;28;20400;-76
2022/11/12 02:02:05;;;;;;;16.08;9.70;;;7.00;99.90;;;;;;5085350;28;20040;-75
2022/11/12 02:04:33;;;;;;;23.10;12.20;;;7.00;99.90;;;;;;5091313;28;20097;-75
2022/11/12 02:07:00;;;;;;;27.42;12.18;;;7.00;99.90;;;;;;5088814;28;20255;-80
2022/11/12 02:09:27;;;;;;;27.50;12.57;;;7.10;99.90;;;;;;5092152;28;20024;-76
2022/11/12 02:11:52;;;;;;;29.00;13.73;;;7.20;99.90;;;;;;5093366;28;20093;-75
2022/11/12 02:14:18;;;;;;;36.53;13.77;;;7.30;99.90;;;;;;5089697;28;20028;-76
2022/11/12 02:16:45;;;;;;;38.53;14.27;;;7.30;99.90;;;;;;5086919;28;20028;-76
2022/11/12 02:19:12;;;;;;;;;;;7.40;99.90;;;;;;5076994;28;20027;-75
2022/11/12 02:21:38;;;;;;;36.20;15.25;;;7.50;99.90;;;;;;5088859;28;19916;-75
2022/11/12 02:24:13;;;;;;;38.75;16.13;;;7.50;99.90;;;;;;5089561;28;20417;-75
2022/11/12 02:26:46;;;;;;;37.60;16.25;;;7.50;99.90;;;;;;5089546;28;20033;-76
2022/11/12 02:29:30;;;;;;;27.40;13.38;;;7.60;99.90;;;;;;5090552;28;20034;-75
2022/11/12 02:31:55;;;;;;;30.63;14.60;;;7.70;99.90;;;;;;5090035;28;20042;-76
2022/11/12 02:34:21;;;;;;;37.13;15.30;;;7.70;99.90;;;;;;5091221;28;20358;-75
2022/11/12 02:36:47;;;;;;;51.93;20.60;;;7.70;99.90;;;;;;5092347;28;20024;-76
2022/11/12 02:39:12;;;;;;;53.63;21.23;;;7.70;99.90;;;;;;5094178;28;20028;-75
2022/11/12 02:41:38;;;;;;;60.63;23.42;;;7.70;99.90;;;;;;5087935;28;20020;-76
2022/11/12 02:44:03;;;;;;;57.67;21.97;;;7.80;99.90;;;;;;5089172;28;20029;-75
2022/11/12 02:46:29;;;;;;;52.60;21.37;;;7.90;99.90;;;;;;5085383;28;20419;-76
2022/11/12 02:48:55;;;;;;;63.38;25.23;;;7.80;99.90;;;;;;5088832;28;20028;-75
2022/11/12 02:51:20;;;;;;;76.23;25.60;;;7.90;99.90;;;;;;5086050;28;20023;-75
2022/11/12 02:53:46;;;;;;;68.37;25.77;;;7.90;99.90;;;;;;5090112;28;20073;-75
2022/11/12 02:56:11;;;;;;;63.87;24.80;;;7.90;99.90;;;;;;5087079;28;20099;-81
2022/11/12 02:58:37;;;;;;;63.00;25.93;;;7.90;99.90;;;;;;5088443;28;20164;-75
2022/11/12 03:01:03;;;;;;;63.33;26.03;;;7.90;99.90;;;;;;5081341;28;20181;-75
2022/11/12 03:03:28;;;;;;;67.13;25.20;;;7.90;99.90;;;;;;5090841;28;20774;-75
2022/11/12 03:05:59;;;;;;;69.33;27.77;;;7.90;99.90;;;;;;5090638;28;20035;-79
2022/11/12 03:08:26;;;;;;;75.15;28.00;;;8.00;99.90;;;;;;5094587;28;20024;-76
2022/11/12 03:10:51;;;;;;;67.20;26.30;;;8.00;99.90;;;;;;5090334;28;20169;-75
2022/11/12 03:13:18;;;;;;;72.05;27.75;;;8.10;99.90;;;;;;5091935;28;20743;-75
2022/11/12 03:15:43;;;;;;;73.20;27.40;;;8.10;99.90;;;;;;5090554;28;20028;-75
2022/11/12 03:18:09;;;;;;;69.20;27.37;;;8.10;99.90;;;;;;5087463;28;20063;-75
2022/11/12 03:20:35;;;;;;;77.57;28.37;;;8.10;99.90;;;;;;5089604;28;20123;-75
2022/11/12 03:23:03;;;;;;;82.40;28.70;;;8.10;99.90;;;;;;5077267;28;20650;-77
2022/11/12 03:25:30;;;;;;;75.88;29.08;;;8.10;99.90;;;;;;5088575;28;20103;-76
2022/11/12 03:28:01;;;;;;;82.55;28.38;;;8.10;99.90;;;;;;5083322;28;20448;-76
2022/11/12 03:30:29;;;;;;;85.55;28.35;;;8.10;99.90;;;;;;5088641;28;20055;-76
2022/11/12 03:32:54;;;;;;;63.45;26.60;;;8.10;99.90;;;;;;5088032;28;20112;-75
2022/11/12 03:35:20;;;;;;;75.00;26.83;;;8.10;99.90;;;;;;5091121;28;20113;-75
2022/11/12 03:37:46;;;;;;;57.70;23.60;;;8.10;99.90;;;;;;5089887;28;20047;-76
2022/11/12 03:40:11;;;;;;;70.70;27.50;;;8.10;99.90;;;;;;5077265;28;20054;-82
2022/11/12 03:42:37;;;;;;;78.40;26.87;;;8.10;99.90;;;;;;5088063;28;20067;-75
2022/11/12 03:45:03;;;;;;;61.73;26.63;;;8.10;99.90;;;;;;5090400;28;20035;-76
2022/11/12 03:47:28;;;;;;;66.85;25.00;;;8.00;99.90;;;;;;5087356;28;20024;-75
2022/11/12 03:49:54;;;;;;;64.97;24.27;;;8.10;99.90;;;;;;5074956;28;20038;-75
2022/11/12 03:52:19;;;;;;;63.90;24.57;;;8.20;99.90;;;;;;5085163;28;20031;-75
2022/11/12 03:54:45;;;;;;;61.30;22.87;;;8.10;99.90;;;;;;5084145;28;20318;-75
2022/11/12 03:57:11;;;;;;;67.77;23.30;;;8.10;99.90;;;;;;5084738;28;20032;-75
2022/11/12 03:59:36;;;;;;;59.30;23.23;;;8.10;99.90;;;;;;5086273;28;20027;-79
2022/11/12 04:02:02;;;;;;;54.33;21.20;;;8.10;99.90;;;;;;5082398;28;20308;-75
2022/11/12 04:08:34;;;;;;;56.57;20.53;;;8.00;99.90;;;;;;5093467;28;20024;-75
2022/11/12 04:09:57;;;;;;;47.25;20.95;;;8.20;99.90;;;;;;5094275;28;20530;-75
2022/11/12 04:15:07;;;;;;;48.38;19.83;;;8.30;99.90;;;;;;5089995;28;20235;-75
2022/11/12 04:23:01;;;;;;;56.13;19.90;;;8.30;99.90;;;;;;5093116;28;20453;-76
2022/11/12 04:28:11;;;;;;;54.90;19.40;;;8.30;99.90;;;;;;5086013;28;20035;-75
2022/11/12 04:30:36;;;;;;;47.77;16.87;;;8.30;99.90;;;;;;5087589;28;20031;-81
2022/11/12 04:33:02;;;;;;;51.23;19.33;;;8.30;99.90;;;;;;5080969;28;20698;-75
2022/11/12 04:35:27;;;;;;;60.80;18.37;;;8.30;99.90;;;;;;5093408;28;20024;-75
2022/11/12 04:37:54;;;;;;;45.80;17.90;;;8.20;99.90;;;;;;5084591;28;20024;-75
2022/11/12 04:45:57;;;;;;;47.08;18.20;;;8.20;99.90;;;;;;5086436;28;20039;-75
2022/11/12 04:48:24;;;;;;;45.45;19.05;;;8.30;99.90;;;;;;5095483;28;20051;-75
2022/11/12 04:50:54;;;;;;;46.50;20.20;;;8.30;99.90;;;;;;5095501;28;20024;-75
2022/11/12 04:53:20;;;;;;;52.58;19.92;;;8.30;99.90;;;;;;5087779;28;20035;-76
2022/11/12 04:55:49;;;;;;;50.22;21.08;;;8.30;99.90;;;;;;5086341;28;20025;-75
2022/11/12 04:58:15;;;;;;;47.20;20.83;;;8.30;99.90;;;;;;5096461;28;20322;-76
2022/11/12 05:00:41;;;;;;;64.83;23.47;;;8.30;99.90;;;;;;5092861;28;20056;-76
2022/11/12 05:03:06;;;;;;;59.83;23.53;;;8.30;99.90;;;;;;5094087;28;20032;-76
2022/11/12 05:05:32;;;;;;;67.47;24.27;;;8.30;99.90;;;;;;5094700;28;20110;-75
2022/11/12 05:08:01;;;;;;;64.90;23.53;;;8.30;99.90;;;;;;5094420;28;20422;-75
2022/11/12 05:10:27;;;;;;;61.22;24.95;;;8.40;99.90;;;;;;5092624;28;20112;-75
2022/11/12 05:12:52;;;;;;;60.97;24.53;;;8.30;99.90;;;;;;5088812;28;20107;-75
2022/11/12 05:15:18;;;;;;;65.83;24.13;;;8.40;99.90;;;;;;5093119;28;20353;-75
2022/11/12 05:17:44;;;;;;;61.10;24.23;;;8.40;99.90;;;;;;5093933;28;20024;-79
2022/11/12 05:20:11;;;;;;;56.97;23.63;;;8.40;99.90;;;;;;5093071;28;20034;-75
2022/11/12 05:22:37;;;;;;;61.13;24.58;;;8.30;99.90;;;;;;5092080;28;20028;-75
2022/11/12 05:25:04;;;;;;;69.87;25.03;;;8.30;99.90;;;;;;5091145;28;20418;-76
2022/11/12 05:27:29;;;;;;;57.97;22.83;;;8.50;99.90;;;;;;5090046;28;20042;-75
2022/11/12 05:29:55;;;;;;;62.17;24.70;;;8.50;99.90;;;;;;5085566;28;20416;-75
2022/11/12 05:32:21;;;;;;;67.53;23.13;;;8.60;99.90;;;;;;5080560;28;20362;-76
2022/11/12 05:34:46;;;;;;;50.57;21.70;;;8.60;99.90;;;;;;5089138;28;20035;-75
2022/11/12 05:37:14;;;;;;;53.73;21.73;;;8.60;99.90;;;;;;5087905;28;20024;-76
2022/11/12 05:39:39;;;;;;;45.58;20.08;;;8.50;99.90;;;;;;5083543;28;20024;-75
2022/11/12 05:42:06;;;;;;;44.20;19.17;;;8.50;99.90;;;;;;5095119;28;20326;-75
2022/11/12 05:44:32;;;;;;;40.20;17.88;;;8.40;99.90;;;;;;5092868;28;20411;-75
2022/11/12 05:46:57;;;;;;;37.63;16.93;;;8.40;99.90;;;;;;5089302;28;20077;-75
2022/11/12 05:49:23;;;;;;;43.17;19.67;;;8.40;99.90;;;;;;5088256;28;20063;-75
2022/11/12 05:51:50;;;;;;;49.13;19.37;;;8.40;99.90;;;;;;5090352;28;20115;-75
2022/11/12 05:54:16;;;;;;;50.95;20.67;;;8.30;99.90;;;;;;5092313;28;20020;-75
2022/11/12 05:56:43;;;;;;;48.88;18.92;;;8.30;99.90;;;;;;5082866;28;20034;-75
2022/11/12 05:59:36;;;;;;;47.28;21.05;;;8.20;99.90;;;;;;5093351;28;20039;-75
2022/11/12 06:02:02;;;;;;;50.45;19.85;;;8.20;99.90;;;;;;5088398;28;20059;-75
2022/11/12 06:04:27;;;;;;;49.83;20.50;;;8.20;99.90;;;;;;5075816;28;20031;-75
2022/11/12 06:06:53;;;;;;;50.40;20.83;;;8.20;99.90;;;;;;5085400;28;20034;-76
2022/11/12 06:09:18;;;;;;;53.30;21.37;;;8.10;99.90;;;;;;5091216;28;20532;-76
2022/11/12 06:11:44;;;;;;;51.03;21.05;;;8.10;99.90;;;;;;5094058;28;20060;-75
2022/11/12 06:14:10;;;;;;;53.40;21.40;;;8.10;99.90;;;;;;5093052;28;20028;-75
2022/11/12 06:16:35;;;;;;;52.37;19.43;;;8.00;99.90;;;;;;5089140;28;20426;-79
2022/11/12 06:19:01;;;;;;;57.35;20.05;;;7.90;99.90;;;;;;5091294;28;20028;-75
2022/11/12 06:21:27;;;;;;;52.97;19.67;;;7.90;99.90;;;;;;5092015;28;20099;-75
2022/11/12 06:23:58;;;;;;;48.40;18.73;;;7.90;99.90;;;;;;5093110;28;20028;-75
2022/11/12 06:26:26;;;;;;;44.03;17.10;;;7.80;99.90;;;;;;5090304;28;20169;-75
2022/11/12 06:28:52;;;;;;;49.88;16.83;;;7.80;99.90;;;;;;5093027;28;20032;-75
2022/11/12 06:31:18;;;;;;;114.63;17.50;;;7.70;99.90;;;;;;5087876;28;20032;-76
2022/11/12 06:33:45;;;;;;;49.67;13.95;;;7.60;99.90;;;;;;5076222;28;20051;-75
2022/11/12 06:36:12;;;;;;;82.97;14.30;;;7.50;99.90;;;;;;5088853;28;20350;-75
2022/11/12 06:38:39;;;;;;;76.68;14.55;;;7.30;99.90;;;;;;5081030;28;20491;-75
2022/11/12 06:41:06;;;;;;;37.60;12.75;;;7.20;99.90;;;;;;5086521;28;20038;-75
2022/11/12 06:43:33;;;;;;;41.92;13.20;;;7.20;99.90;;;;;;5092265;28;20059;-76
2022/11/12 06:46:17;;;;;;;;;;;7.20;99.90;;;;;;5091550;28;20040;-73
2022/11/12 06:48:43;;;;;;;80.40;13.00;;;7.10;99.90;;;;;;5088068;28;19961;-77
2022/11/12 06:51:14;;;;;;;57.37;13.83;;;7.10;99.90;;;;;;5092131;28;20054;-76
2022/11/12 06:53:40;;;;;;;62.47;13.35;;;7.00;99.90;;;;;;5085939;28;20086;-75
2022/11/12 06:56:06;;;;;;;98.20;14.83;;;7.00;99.90;;;;;;5082540;28;20028;-75
2022/11/12 06:58:33;;;;;;;61.30;14.73;;;6.90;99.90;;;;;;5089329;28;20085;-76
2022/11/12 07:01:11;;;;;;;28.88;13.90;;;6.90;99.90;;;;;;5088659;28;20048;-75
2022/11/12 07:03:38;;;;;;;59.15;13.20;;;6.80;99.90;;;;;;5093127;28;20061;-76
2022/11/12 07:06:05;;;;;;;34.90;12.80;;;6.70;99.90;;;;;;5086944;28;20028;-80
2022/11/12 07:08:32;;;;;;;74.43;13.70;;;6.60;99.90;;;;;;5085479;28;20024;-75
2022/11/12 07:10:58;;;;;;;25.67;12.18;;;6.50;99.90;;;;;;5084443;28;20222;-76
2022/11/12 07:13:24;;;;;;;27.17;13.23;;;6.50;99.90;;;;;;5093090;28;20486;-76
2022/11/12 07:15:49;;;;;;;39.83;14.10;;;6.60;99.90;;;;;;5091816;28;20035;-77
2022/11/12 07:18:15;;;;;;;44.40;12.60;;;6.50;99.90;;;;;;5090915;28;20582;-80
2022/11/12 07:20:41;;;;;;;23.48;12.68;;;6.40;99.90;;;;;;5091961;28;20032;-76
2022/11/12 07:23:06;;;;;;;38.70;11.95;;;6.40;99.90;;;;;;5093147;28;20031;-76
2022/11/12 07:25:32;;;;;;;20.37;11.20;;;6.30;99.90;;;;;;5086228;28;20024;-80
2022/11/12 07:27:58;;;;;;;34.33;13.60;;;6.30;99.90;;;;;;5088194;28;20024;-76
2022/11/12 07:30:23;;;;;;;31.87;13.10;;;6.30;99.90;;;;;;5088234;28;20040;-76
2022/11/12 07:32:49;;;;;;;34.63;12.50;;;6.30;99.90;;;;;;5094887;28;20059;-81
2022/11/12 07:35:15;;;;;;;35.90;12.47;;;6.20;99.90;;;;;;5091336;28;20027;-76
2022/11/12 07:37:40;;;;;;;25.20;13.20;;;6.30;99.90;;;;;;5092768;28;20527;-76
2022/11/12 07:40:06;;;;;;;20.27;11.93;;;6.30;99.90;;;;;;5094192;28;20039;-75
2022/11/12 07:42:33;;;;;;;40.27;13.47;;;6.20;99.90;;;;;;5087344;28;20035;-80
2022/11/12 07:44:59;;;;;;;77.68;12.70;;;6.20;99.90;;;;;;5090679;28;20082;-79
2022/11/12 07:47:24;;;;;;;79.63;12.63;;;6.20;99.90;;;;;;5084560;28;20028;-75
2022/11/12 07:49:50;;;;;;;67.53;11.63;;;6.20;99.90;;;;;;5092775;28;20318;-76
2022/11/12 07:52:15;;;;;;;44.87;12.13;;;6.10;99.90;;;;;;5090332;28;20040;-75
2022/11/12 07:54:41;;;;;;;52.23;12.87;;;6.20;99.90;;;;;;5094097;28;20043;-77
2022/11/12 07:57:07;;;;;;;86.00;13.00;;;6.20;99.90;;;;;;5092363;28;20031;-76
2022/11/12 07:59:32;;;;;;;42.30;12.53;;;6.30;99.90;;;;;;5092670;28;20035;-75
2022/11/12 08:01:58;;;;;;;39.50;12.73;;;6.40;99.90;;;;;;5088896;28;20044;-76
2022/11/12 08:04:24;;;;;;;44.97;12.67;;;6.40;99.90;;;;;;5095149;28;20024;-76
2022/11/12 08:06:49;;;;;;;34.00;11.93;;;6.40;99.90;;;;;;5096716;28;20028;-76
2022/11/12 08:09:15;;;;;;;31.20;13.67;;;6.50;99.90;;;;;;5086251;28;20418;-76
2022/11/12 08:11:41;;;;;;;24.33;12.90;;;6.50;99.90;;;;;;5095774;28;20263;-75
2022/11/12 08:14:06;;;;;;;25.43;14.13;;;6.50;99.90;;;;;;5092350;28;20020;-79
2022/11/12 08:16:32;;;;;;;22.98;13.50;;;6.60;99.90;;;;;;5082951;28;20032;-79
2022/11/12 08:18:59;;;;;;;28.23;14.40;;;6.60;99.90;;;;;;5093583;28;20028;-75
2022/11/12 08:21:24;;;;;;;20.80;13.07;;;6.70;99.90;;;;;;5089251;28;20031;-76
2022/11/12 08:23:50;;;;;;;26.10;13.83;;;6.80;99.90;;;;;;5088384;28;20325;-77
2022/11/12 08:26:18;;;;;;;28.90;14.35;;;6.80;99.90;;;;;;5095662;28;20031;-79
2022/11/12 08:28:44;;;;;;;25.13;14.20;;;6.80;99.90;;;;;;5095222;28;20085;-79
2022/11/12 08:31:15;;;;;;;30.67;14.40;;;6.90;99.90;;;;;;5093041;28;20032;-76
2022/11/12 08:33:41;;;;;;;25.98;14.30;;;7.00;99.90;;;;;;5091083;28;20039;-76
2022/11/12 08:36:10;;;;;;;24.57;14.23;;;7.00;99.90;;;;;;5094739;28;20020;-76
2022/11/12 08:38:36;;;;;;;25.90;15.23;;;7.00;99.90;;;;;;5093623;28;20418;-78
2022/11/12 08:41:03;;;;;;;29.93;14.53;;;7.10;99.90;;;;;;5094866;28;20028;-76
2022/11/12 08:43:29;;;;;;;27.48;14.85;;;7.10;99.90;;;;;;5082572;28;20127;-77
2022/11/12 08:45:58;;;;;;;23.40;13.80;;;7.20;99.90;;;;;;5087582;28;20112;-77
2022/11/12 08:48:24;;;;;;;27.17;15.25;;;7.20;99.90;;;;;;5081852;28;20039;-81
2022/11/12 08:50:50;;;;;;;27.08;14.52;;;7.30;99.90;;;;;;5091305;28;20038;-77
2022/11/12 08:53:16;;;;;;;31.73;14.75;;;7.40;99.90;;;;;;5090844;28;20369;-79
2022/11/12 08:55:41;;;;;;;27.20;14.00;;;7.50;99.90;;;;;;5095696;28;20106;-76
2022/11/12 08:58:09;;;;;;;23.60;13.07;;;7.50;99.90;;;;;;5090925;28;20020;-76
2022/11/12 09:00:40;;;;;;;25.45;13.32;;;7.60;99.90;;;;;;5092226;28;20438;-76
2022/11/12 09:03:11;;;;;;;23.27;13.57;;;7.60;99.90;;;;;;5087904;28;20425;-76
2022/11/12 09:05:37;;;;;;;24.85;13.73;;;7.70;99.90;;;;;;5096071;28;20642;-82
2022/11/12 09:08:06;;;;;;;35.27;13.87;;;7.80;99.90;;;;;;5083902;28;20065;-78
2022/11/12 09:10:32;;;;;;;23.92;13.70;;;7.80;99.90;;;;;;5085759;28;20123;-76
2022/11/12 09:12:58;;;;;;;25.92;14.85;;;7.90;99.90;;;;;;5086163;28;20032;-76
2022/11/12 09:15:25;;;;;;;27.17;14.05;;;8.00;99.90;;;;;;5086943;28;20319;-77
2022/11/12 09:18:01;;;;;;;26.33;13.25;;;8.10;99.90;;;;;;5085856;28;20028;-76
2022/11/12 09:20:27;;;;;;;27.80;12.75;;;8.20;99.90;;;;;;5083542;28;20082;-80
2022/11/12 09:22:56;;;;;;;24.17;12.52;;;8.30;99.90;;;;;;5084300;28;20115;-77
2022/11/12 09:25:22;;;;;;;21.55;13.05;;;8.40;99.90;;;;;;5084673;28;20540;-76
2022/11/12 09:27:48;;;;;;;18.90;11.87;;;8.50;99.90;;;;;;5083605;28;20028;-78
2022/11/12 09:30:14;;;;;;;26.60;12.07;;;8.60;99.90;;;;;;5069146;28;20410;-77
2022/11/12 09:32:40;;;;;;;18.77;11.67;;;8.70;99.90;;;;;;5088239;28;20054;-77
2022/11/12 09:35:06;;;;;;;19.10;11.20;;;8.80;99.90;;;;;;5085659;28;20414;-78
2022/11/12 09:37:32;;;;;;;26.63;12.20;;;8.90;99.90;;;;;;5085830;28;20334;-78
2022/11/12 09:39:57;;;;;;;22.07;10.60;;;9.00;99.90;;;;;;5084625;28;20032;-78
2022/11/12 09:42:23;;;;;;;19.00;10.80;;;9.10;99.90;;;;;;5088291;28;20029;-78
2022/11/12 09:45:00;;;;;;;17.17;10.32;;;9.20;99.90;;;;;;5066866;28;20028;-77
2022/11/12 09:47:31;;;;;;;;;;;9.30;99.90;;;;;;5082019;28;20031;-79
2022/11/12 09:50:12;;;;;;;19.00;10.07;;;9.40;99.90;;;;;;5086444;28;19915;-76
2022/11/12 09:52:42;;;;;;;21.02;10.70;;;9.50;99.90;;;;;;5084060;28;20330;-77
2022/11/12 09:55:32;;;;;;;19.05;10.30;;;9.60;99.90;;;;;;5087044;28;20024;-78
2022/11/12 09:57:57;;;;;;;16.73;9.23;;;9.70;99.90;;;;;;5090882;28;20024;-79
2022/11/12 10:00:23;;;;;;;16.93;9.80;;;9.80;99.90;;;;;;5088348;28;20746;-78
2022/11/12 10:03:06;;;;;;;19.40;9.93;;;9.90;99.90;;;;;;5092547;28;20386;-78
2022/11/12 10:05:51;;;;;;;13.40;9.07;;;10.00;99.90;;;;;;5091165;28;20036;-76
2022/11/12 10:08:39;;;;;;;15.48;9.18;;;10.10;99.90;;;;;;5093417;28;20091;-77
2022/11/12 10:11:28;;;;;;;16.25;9.18;;;10.20;99.90;;;;;;5091116;28;20077;-75
2022/11/12 10:14:32;;;;;;;15.13;8.75;;;10.30;99.90;;;;;;5092389;28;20084;-78
2022/11/12 10:17:09;;;;;;;15.20;8.73;;;10.40;99.90;;;;;;5093082;28;20024;-77
2022/11/12 10:20:12;;;;;;;11.85;8.15;;;10.50;99.90;;;;;;5090567;28;20031;-78
2022/11/12 10:23:08;;;;;;;17.85;8.90;;;10.60;99.90;;;;;;5093261;28;20116;-77
2022/11/12 10:25:35;;;;;;;15.40;8.55;;;10.60;99.90;;;;;;5089642;28;20052;-76
2022/11/12 10:28:14;;;;;;;22.17;8.75;;;10.70;99.90;;;;;;5085270;28;20040;-77
2022/11/12 10:30:41;;;;;;;15.68;8.43;;;10.80;99.90;;;;;;5085582;28;20467;-77
2022/11/12 10:33:12;;;;;;;16.95;8.32;;;10.90;99.90;;;;;;5090934;28;20046;-76
2022/11/12 10:35:38;;;;;;;11.82;7.68;;;11.00;99.90;;;;;;5091784;28;20055;-78
2022/11/12 10:38:10;;;;;;;13.10;8.03;;;11.10;99.90;;;;;;5091325;28;20055;-77
2022/11/12 10:40:38;;;;;;;16.17;8.30;;;11.20;99.90;;;;;;5092709;28;20028;-79
2022/11/12 10:43:16;;;;;;;13.60;7.03;;;11.30;99.90;;;;;;5087803;28;20028;-79
2022/11/12 10:45:44;;;;;;;12.00;6.70;;;11.40;99.90;;;;;;5083348;28;20628;-78
2022/11/12 10:48:27;;;;;;;11.77;6.95;;;11.50;99.90;;;;;;5078449;28;20050;-77
2022/11/12 10:50:54;;;;;;;12.90;6.32;;;11.50;99.90;;;;;;5088484;28;20032;-79
2022/11/12 10:53:34;;;;;;;8.32;5.57;;;11.60;99.90;;;;;;5083043;28;20046;-80
2022/11/12 10:56:03;;;;;;;9.80;6.30;;;11.70;99.90;;;;;;5080370;28;20419;-76
2022/11/12 10:58:29;;;;;;;9.45;6.40;;;11.70;99.90;;;;;;5080017;28;20525;-80
2022/11/12 11:00:58;;;;;;;9.27;6.23;;;11.90;99.90;;;;;;5086923;28;20056;-79
2022/11/12 11:03:34;;;;;;;14.80;6.38;;;12.00;99.90;;;;;;5089959;28;20032;-79
2022/11/12 11:06:04;;;;;;;10.50;6.43;;;12.10;99.90;;;;;;5090598;28;20024;-76
2022/11/12 11:08:37;;;;;;;9.95;5.93;;;12.30;99.90;;;;;;5094654;28;20031;-76
2022/11/12 11:11:21;;;;;;;9.90;5.82;;;12.40;99.90;;;;;;5092570;28;20051;-79
2022/11/12 11:13:49;;;;;;;10.57;5.95;;;12.50;99.90;;;;;;5097746;28;20016;-79
2022/11/12 11:16:18;;;;;;;8.90;5.68;;;12.60;99.90;;;;;;5096312;28;20426;-79
2022/11/12 11:19:02;;;;;;;11.77;5.32;;;12.60;99.90;;;;;;5096878;28;20043;-76
2022/11/12 11:21:31;;;;;;;7.25;5.35;;;12.70;99.90;;;;;;5096228;28;20040;-78
2022/11/12 11:24:11;;;;;;;9.13;5.53;;;12.80;99.90;;;;;;5092418;28;20094;-79
2022/11/12 11:27:01;;;;;;;7.45;5.00;;;12.90;99.90;;;;;;5094883;28;20100;-75
2022/11/12 11:29:45;;;;;;;8.38;5.05;;;13.00;99.90;;;;;;5093160;28;20016;-78
2022/11/12 11:32:38;;;;;;;6.63;4.70;;;13.10;99.90;;;;;;5089101;28;20024;-76
2022/11/12 11:35:14;;;;;;;6.70;4.50;;;13.20;99.90;;;;;;5094555;28;20027;-79
2022/11/12 11:38:10;;;;;;;8.00;4.50;;;13.30;99.90;;;;;;5091107;28;20496;-79
2022/11/12 11:40:44;;;;;;;7.53;4.90;;;13.30;99.90;;;;;;5080733;28;20082;-80
2022/11/12 11:43:42;;;;;;;7.82;5.13;;;13.40;99.90;;;;;;5092039;28;20043;-77
2022/11/12 11:46:23;;;;;;;9.88;5.20;;;13.40;99.90;;;;;;5084754;28;20618;-79
2022/11/12 11:49:03;;;;;;;9.35;5.20;;;13.40;99.90;;;;;;5090137;28;20304;-79
2022/11/12 11:51:40;;;;;;;10.15;4.95;;;13.50;99.90;;;;;;5092905;28;20346;-80
2022/11/12 11:54:45;;;;;;;7.15;4.22;;;13.60;99.90;;;;;;5094729;28;20020;-79
2022/11/12 11:57:15;;;;;;;6.87;4.00;;;13.60;99.90;;;;;;5086653;28;20028;-77
2022/11/12 11:59:53;;;;;;;9.00;5.20;;;13.70;99.90;;;;;;5092523;28;20264;-76
2022/11/12 12:02:28;;;;;;;6.55;3.83;;;13.80;99.90;;;;;;5089039;28;20509;-80
2022/11/12 12:05:23;;;;;;;7.57;4.15;;;13.80;99.90;;;;;;5090884;28;20246;-76
2022/11/12 12:08:04;;;;;;;6.57;4.32;;;13.90;99.90;;;;;;5086111;28;20047;-76
2022/11/12 12:10:42;;;;;;;9.63;3.75;;;14.00;99.90;;;;;;5089219;28;20029;-77
2022/11/12 12:13:28;;;;;;;6.85;4.10;;;14.10;99.90;;;;;;5091138;28;20040;-80
2022/11/12 12:16:18;;;;;;;9.65;4.30;;;14.20;99.90;;;;;;5094484;28;20024;-79
2022/11/12 12:18:54;;;;;;;5.43;3.80;;;14.20;99.90;;;;;;5087843;28;20444;-79
2022/11/12 12:21:22;;;;;;;6.55;3.80;;;14.30;99.90;;;;;;5086235;28;20143;-79
2022/11/12 12:23:51;;;;;;;10.80;3.95;;;14.40;99.90;;;;;;5086038;28;20030;-81
2022/11/12 12:26:25;;;;;;;6.35;3.80;;;14.50;99.90;;;;;;5085091;28;20093;-75
2022/11/12 12:29:04;;;;;;;6.90;4.10;;;14.60;99.90;;;;;;5087772;28;20054;-77
2022/11/12 12:31:40;;;;;;;7.43;4.43;;;14.60;99.90;;;;;;5094350;28;20089;-79
2022/11/12 12:34:12;;;;;;;;;;;14.70;99.90;;;;;;5084873;28;20447;-76
2022/11/12 12:36:40;;;;;;;5.95;3.65;;;14.60;99.90;;;;;;5091599;28;19914;-79
2022/11/12 12:39:24;;;;;;;7.10;3.85;;;14.70;99.90;;;;;;5089133;28;20046;-79
2022/11/12 12:42:14;;;;;;;6.15;3.65;;;14.80;99.90;;;;;;5094952;28;20497;-77
2022/11/12 12:45:14;;;;;;;7.70;3.67;;;14.80;99.90;;;;;;5090719;28;20042;-78
2022/11/12 12:47:42;;;;;;;6.60;3.95;;;14.90;99.90;;;;;;5086945;28;20038;-78
2022/11/12 12:50:14;;;;;;;10.13;4.35;;;15.00;99.90;;;;;;5092795;28;20055;-75
2022/11/12 12:52:59;;;;;;;5.35;3.50;;;15.10;99.90;;;;;;5086943;28;20438;-79
2022/11/12 12:55:40;;;;;;;8.88;3.90;;;15.10;99.90;;;;;;5089855;28;20020;-79
2022/11/12 12:58:24;;;;;;;8.38;3.78;;;15.20;99.90;;;;;;5094777;28;20072;-80
2022/11/12 13:01:00;;;;;;;6.95;3.60;;;15.30;99.90;;;;;;5095124;28;20068;-79
2022/11/12 13:03:41;;;;;;;5.93;3.88;;;15.30;99.90;;;;;;5093046;28;20028;-78
2022/11/12 13:06:15;;;;;;;17.00;4.85;;;15.40;99.90;;;;;;5093629;28;20170;-76
2022/11/12 13:08:41;;;;;;;24.77;5.07;;;15.40;99.90;;;;;;5094623;28;20027;-76
2022/11/12 13:11:07;;;;;;;14.73;5.20;;;15.40;99.90;;;;;;5090619;28;20031;-80
2022/11/12 13:13:35;;;;;;;22.77;5.97;;;15.40;99.90;;;;;;5089063;28;20329;-80